createdAt,value
2018-03-30T00:01:50.456Z,12.10
2018-03-30T00:04:16.756Z,11.95
2018-03-30T00:06:43.349Z,10.70
2018-03-30T00:09:09.587Z,12.00
2018-03-30T00:11:35.832Z,11.73
2018-03-30T00:14:02.066Z,12.75
2018-03-30T00:16:28.671Z,12.90
2018-03-30T00:18:54.913Z,12.27
2018-03-30T00:21:21.720Z,12.25
2018-03-30T00:23:47.933Z,12.90
2018-03-30T00:26:14.177Z,13.23
2018-03-30T00:28:40.945Z,12.65
2018-03-30T00:31:07.192Z,12.70
2018-03-30T00:33:33.413Z,11.77
2018-03-30T00:35:59.614Z,12.20
2018-03-30T00:38:25.869Z,12.60
2018-03-30T00:40:52.118Z,12.02
2018-03-30T00:43:18.389Z,13.25
2018-03-30T00:45:44.573Z,12.55
2018-03-30T00:48:10.801Z,13.05
2018-03-30T00:50:37.046Z,12.95
2018-03-30T00:53:03.662Z,13.88
2018-03-30T00:55:29.935Z,13.70
2018-03-30T00:57:57.020Z,12.90
2018-03-30T01:00:23.240Z,12.27
2018-03-30T01:02:49.496Z,10.55
2018-03-30T01:05:16.120Z,11.65
2018-03-30T01:07:42.340Z,12.02
2018-03-30T01:12:41.526Z,12.25
2018-03-30T01:15:07.740Z,12.60
2018-03-30T01:17:33.985Z,12.15
2018-03-30T01:20:00.238Z,12.80
2018-03-30T01:22:26.461Z,12.43
2018-03-30T01:24:52.701Z,11.93
2018-03-30T01:27:18.947Z,14.02
2018-03-30T01:29:45.563Z,13.35
2018-03-30T01:32:12.446Z,12.07
2018-03-30T01:34:39.203Z,13.00
2018-03-30T01:37:05.405Z,12.68
2018-03-30T01:39:32.012Z,14.20
2018-03-30T01:41:58.213Z,13.35
2018-03-30T01:44:24.454Z,15.25
2018-03-30T01:46:50.729Z,12.80
2018-03-30T01:49:17.000Z,13.62
2018-03-30T01:51:44.276Z,11.48
2018-03-30T01:54:10.520Z,14.65
2018-03-30T01:56:36.720Z,13.75
2018-03-30T01:59:02.993Z,16.17
2018-03-30T02:01:29.589Z,19.33
2018-03-30T02:03:55.802Z,16.08
2018-03-30T02:06:22.092Z,17.33
2018-03-30T02:08:48.320Z,16.25
2018-03-30T02:11:14.527Z,15.43
2018-03-30T02:13:41.121Z,16.80
2018-03-30T02:16:07.357Z,17.23
2018-03-30T02:18:33.586Z,16.23
2018-03-30T02:20:59.804Z,17.40
2018-03-30T02:23:26.016Z,16.10
2018-03-30T02:25:52.222Z,17.25
2018-03-30T02:28:18.450Z,17.42
2018-03-30T02:30:44.671Z,17.80
2018-03-30T02:33:10.877Z,19.02
2018-03-30T02:35:37.106Z,23.00
2018-03-30T02:38:03.339Z,18.40
2018-03-30T02:40:29.595Z,24.08
2018-03-30T02:42:55.881Z,20.50
2018-03-30T02:45:22.117Z,18.58
2018-03-30T02:47:48.342Z,23.27
2018-03-30T02:50:15.340Z,22.35
2018-03-30T02:52:41.584Z,26.42
2018-03-30T02:55:07.831Z,20.37
2018-03-30T02:57:34.124Z,19.25
2018-03-30T03:00:00.277Z,18.87
2018-03-30T03:02:26.516Z,20.85
2018-03-30T03:04:53.706Z,17.80
2018-03-30T03:07:20.275Z,21.60
2018-03-30T03:09:46.490Z,17.42
2018-03-30T03:12:12.742Z,20.42
2018-03-30T03:14:38.947Z,21.00
2018-03-30T03:17:05.173Z,23.58
2018-03-30T03:19:31.418Z,16.83
2018-03-30T03:21:57.634Z,18.50
2018-03-30T03:24:23.865Z,19.42
2018-03-30T03:26:50.121Z,15.98
2018-03-30T03:29:16.333Z,18.48
2018-03-30T03:31:42.566Z,19.00
2018-03-30T03:34:08.862Z,18.65
2018-03-30T03:36:35.057Z,19.10
2018-03-30T03:39:01.269Z,17.87
2018-03-30T03:41:27.493Z,17.65
2018-03-30T03:43:53.741Z,19.62
2018-03-30T03:46:19.952Z,20.27
2018-03-30T03:48:46.200Z,20.17
2018-03-30T03:51:13.398Z,19.80
2018-03-30T03:53:39.620Z,18.83
2018-03-30T03:56:05.842Z,20.23
2018-03-30T03:58:32.075Z,18.12
2018-03-30T04:00:58.327Z,19.08
2018-03-30T04:03:24.540Z,21.08
2018-03-30T04:05:50.774Z,20.20
2018-03-30T04:08:16.974Z,19.60
2018-03-30T04:10:43.215Z,18.62
2018-03-30T04:13:09.465Z,18.67
2018-03-30T04:15:35.663Z,17.30
2018-03-30T04:18:01.927Z,24.00
2018-03-30T04:20:28.152Z,19.45
2018-03-30T04:22:54.402Z,20.00
2018-03-30T04:25:20.611Z,17.48
2018-03-30T04:27:46.856Z,18.65
2018-03-30T04:30:13.072Z,19.25
2018-03-30T04:32:39.312Z,20.20
2018-03-30T04:35:05.537Z,23.60
2018-03-30T04:37:31.737Z,21.98
2018-03-30T04:39:57.974Z,20.52
2018-03-30T04:42:24.226Z,20.02
2018-03-30T04:44:50.481Z,21.55
2018-03-30T04:47:17.702Z,19.37
2018-03-30T04:49:43.951Z,17.80
2018-03-30T04:52:10.163Z,19.20
2018-03-30T04:54:36.404Z,19.40
2018-03-30T04:57:02.682Z,20.62
2018-03-30T04:59:28.903Z,19.77
2018-03-30T05:01:55.150Z,19.83
2018-03-30T05:04:21.376Z,21.77
2018-03-30T05:06:47.630Z,21.15
2018-03-30T05:09:13.839Z,21.37
2018-03-30T05:11:40.058Z,18.60
2018-03-30T05:14:06.315Z,19.10
2018-03-30T05:16:32.555Z,19.83
2018-03-30T05:18:58.773Z,23.98
2018-03-30T05:21:25.002Z,23.42
2018-03-30T05:23:51.221Z,20.10
2018-03-30T05:26:17.445Z,20.30
2018-03-30T05:28:43.693Z,18.58
2018-03-30T05:31:10.273Z,18.62
2018-03-30T05:33:36.500Z,22.10
2018-03-30T05:36:02.748Z,19.70
2018-03-30T05:38:28.962Z,18.30
2018-03-30T05:40:55.222Z,17.27
2018-03-30T05:43:21.449Z,18.50
2018-03-30T05:45:47.727Z,19.02
2018-03-30T05:48:14.328Z,17.83
2018-03-30T05:50:40.567Z,18.58
2018-03-30T05:53:07.153Z,17.08
2018-03-30T05:55:33.410Z,18.50
2018-03-30T05:57:59.648Z,17.60
2018-03-30T06:00:25.896Z,17.40
2018-03-30T06:02:53.150Z,20.17
2018-03-30T06:05:21.914Z,19.17
2018-03-30T06:07:48.143Z,17.75
2018-03-30T06:10:14.357Z,18.80
2018-03-30T06:12:40.579Z,19.98
2018-03-30T06:15:06.822Z,22.70
2018-03-30T06:17:33.070Z,20.40
2018-03-30T06:19:59.316Z,20.15
2018-03-30T06:22:25.597Z,19.05
2018-03-30T06:24:51.831Z,21.73
2018-03-30T06:27:18.067Z,18.98
2018-03-30T06:29:44.311Z,18.50
2018-03-30T06:32:10.964Z,19.35
2018-03-30T06:34:37.557Z,17.02
2018-03-30T06:37:03.812Z,17.40
2018-03-30T06:39:30.389Z,19.15
2018-03-30T06:41:56.628Z,17.65
2018-03-30T06:44:22.880Z,22.50
2018-03-30T06:46:49.119Z,18.52
2018-03-30T06:49:15.349Z,20.35
2018-03-30T06:51:42.177Z,18.77
2018-03-30T06:54:08.433Z,18.50
2018-03-30T06:56:34.674Z,17.70
2018-03-30T06:59:01.283Z,17.27
2018-03-30T07:01:28.102Z,19.40
2018-03-30T07:03:54.364Z,18.17
2018-03-30T07:06:20.610Z,18.67
2018-03-30T07:08:47.212Z,18.00
2018-03-30T07:11:13.421Z,17.70
2018-03-30T07:13:39.705Z,18.02
2018-03-30T07:16:05.957Z,19.30
2018-03-30T07:18:32.193Z,19.00
2018-03-30T07:20:58.439Z,17.62
2018-03-30T07:23:24.668Z,17.92
2018-03-30T07:25:51.694Z,15.55
2018-03-30T07:28:17.998Z,17.35
2018-03-30T07:30:44.590Z,18.37
2018-03-30T07:33:10.817Z,20.33
2018-03-30T07:35:37.054Z,18.85
2018-03-30T07:38:04.329Z,19.02
2018-03-30T07:40:30.597Z,18.48
2018-03-30T07:42:56.810Z,18.42
2018-03-30T07:45:23.055Z,20.92
2018-03-30T07:47:49.280Z,20.33
2018-03-30T07:50:15.497Z,21.80
2018-03-30T07:52:41.737Z,20.08
2018-03-30T07:55:07.968Z,20.35
2018-03-30T07:57:34.227Z,20.60
2018-03-30T08:00:00.483Z,23.00
2018-03-30T08:02:28.110Z,20.42
2018-03-30T08:04:54.378Z,20.88
2018-03-30T08:07:21.034Z,19.15
2018-03-30T08:09:47.274Z,21.37
2018-03-30T08:12:13.543Z,19.45
2018-03-30T08:14:39.810Z,23.87
2018-03-30T08:17:06.836Z,18.02
2018-03-30T08:19:33.075Z,24.42
2018-03-30T08:21:59.683Z,18.40
2018-03-30T08:24:25.950Z,21.23
2018-03-30T08:26:52.168Z,15.93
2018-03-30T08:29:20.480Z,16.10
2018-03-30T08:31:51.292Z,17.05
2018-03-30T08:34:18.841Z,16.42
2018-03-30T08:36:45.109Z,15.05
2018-03-30T08:39:11.370Z,16.35
2018-03-30T08:41:37.628Z,14.75
2018-03-30T08:44:04.485Z,14.30
2018-03-30T08:46:30.712Z,16.45
2018-03-30T08:48:56.961Z,15.40
2018-03-30T08:51:23.204Z,14.13
2018-03-30T08:53:49.440Z,14.02
2018-03-30T08:56:19.244Z,13.13
2018-03-30T08:58:48.374Z,14.75
2018-03-30T09:01:14.642Z,12.75
2018-03-30T09:03:40.915Z,14.13
2018-03-30T09:06:07.198Z,13.65
2018-03-30T09:08:33.416Z,12.27
2018-03-30T09:10:59.680Z,15.45
2018-03-30T09:13:25.943Z,11.75
2018-03-30T09:15:52.190Z,15.80
2018-03-30T09:18:19.443Z,14.00
2018-03-30T09:20:46.058Z,12.65
2018-03-30T09:23:12.303Z,12.73
2018-03-30T09:25:38.916Z,15.73
2018-03-30T09:28:05.222Z,14.18
2018-03-30T09:30:31.507Z,13.32
2018-03-30T09:32:57.726Z,13.50
2018-03-30T09:35:24.837Z,14.25
2018-03-30T09:37:51.070Z,13.77
2018-03-30T09:40:18.137Z,14.60
2018-03-30T09:42:44.399Z,12.40
2018-03-30T09:45:10.649Z,17.00
2018-03-30T09:47:36.902Z,13.27
2018-03-30T09:50:03.205Z,15.43
2018-03-30T09:52:29.489Z,15.02
2018-03-30T09:54:56.141Z,13.50
2018-03-30T09:57:22.768Z,15.43
2018-03-30T09:59:49.395Z,17.98
2018-03-30T10:02:15.665Z,12.63
2018-03-30T10:04:43.756Z,13.13
2018-03-30T10:07:10.027Z,12.40
2018-03-30T10:09:36.296Z,13.73
2018-03-30T10:12:02.561Z,14.43
2018-03-30T10:14:28.778Z,12.93
2018-03-30T10:16:55.061Z,12.98
2018-03-30T10:19:21.702Z,13.18
2018-03-30T10:21:47.990Z,14.30
2018-03-30T10:24:14.237Z,11.23
2018-03-30T10:26:40.513Z,12.10
2018-03-30T10:29:06.775Z,12.13
2018-03-30T10:31:33.005Z,13.47
2018-03-30T10:33:59.687Z,11.33
2018-03-30T10:36:25.906Z,12.10
2018-03-30T10:38:52.510Z,11.93
2018-03-30T10:41:18.769Z,15.40
2018-03-30T10:43:45.395Z,11.40
2018-03-30T10:46:11.987Z,12.93
2018-03-30T10:48:38.256Z,11.67
2018-03-30T10:51:04.506Z,14.67
2018-03-30T10:53:31.106Z,12.40
2018-03-30T10:55:57.468Z,7.90
2018-03-30T10:58:23.702Z,5.20
2018-03-30T11:00:50.922Z,5.40
2018-03-30T11:03:17.235Z,4.93
2018-03-30T11:05:43.468Z,4.70
2018-03-30T11:08:09.808Z,5.27
2018-03-30T11:10:36.090Z,4.40
2018-03-30T11:13:02.965Z,4.97
2018-03-30T11:15:29.239Z,5.30
2018-03-30T11:17:55.971Z,4.43
2018-03-30T11:20:22.280Z,4.27
2018-03-30T11:22:48.546Z,4.30
2018-03-30T11:25:14.862Z,4.57
2018-03-30T11:27:41.514Z,4.10
2018-03-30T11:30:08.124Z,3.67
2018-03-30T11:32:34.753Z,4.17
2018-03-30T11:35:01.931Z,3.43
2018-03-30T11:37:28.211Z,2.80
2018-03-30T11:39:55.830Z,2.33
2018-03-30T11:42:22.529Z,2.00
2018-03-30T11:44:48.769Z,1.97
2018-03-30T11:47:15.085Z,2.10
2018-03-30T11:49:42.840Z,1.80
2018-03-30T11:52:09.183Z,1.70
2018-03-30T11:54:35.422Z,1.60
2018-03-30T11:57:02.542Z,1.43
2018-03-30T11:59:28.801Z,1.80
2018-03-30T12:01:55.081Z,1.47
2018-03-30T12:04:21.351Z,2.00
2018-03-30T12:06:47.659Z,1.40
2018-03-30T12:09:13.987Z,1.27
2018-03-30T12:11:40.270Z,1.40
2018-03-30T12:14:06.497Z,1.60
2018-03-30T12:16:33.674Z,1.33
2018-03-30T12:18:59.959Z,1.80
2018-03-30T12:21:26.622Z,1.30
2018-03-30T12:23:52.913Z,1.00
2018-03-30T12:26:19.210Z,1.30
2018-03-30T12:28:46.325Z,1.20
2018-03-30T12:31:12.630Z,2.27
2018-03-30T12:33:38.869Z,1.50
2018-03-30T12:36:06.009Z,1.30
2018-03-30T12:38:32.516Z,1.53
2018-03-30T12:40:59.351Z,1.50
2018-03-30T12:43:25.940Z,1.53
2018-03-30T12:45:52.579Z,1.27
2018-03-30T12:48:19.217Z,1.10
2018-03-30T12:50:47.903Z,1.40
2018-03-30T12:53:15.602Z,1.60
2018-03-30T12:55:41.844Z,1.40
2018-03-30T12:58:09.052Z,1.37
2018-03-30T13:00:36.055Z,1.80
2018-03-30T13:03:03.011Z,1.30
2018-03-30T13:05:29.266Z,1.43
2018-03-30T13:07:56.466Z,1.77
2018-03-30T13:10:22.780Z,1.20
2018-03-30T13:12:49.110Z,1.60
2018-03-30T13:15:15.598Z,1.80
2018-03-30T13:17:42.214Z,1.90
2018-03-30T13:20:09.228Z,1.60
2018-03-30T13:22:35.548Z,1.40
2018-03-30T13:25:03.422Z,1.80
2018-03-30T13:27:30.550Z,1.50
2018-03-30T13:29:56.814Z,1.37
2018-03-30T13:32:24.675Z,1.33
2018-03-30T13:34:52.759Z,1.23
2018-03-30T13:37:19.051Z,1.33
2018-03-30T13:39:45.793Z,1.40
2018-03-30T13:42:12.068Z,1.33
2018-03-30T13:44:38.949Z,1.20
2018-03-30T13:47:05.579Z,1.27
2018-03-30T13:49:31.854Z,1.30
2018-03-30T13:52:24.705Z,1.13
2018-03-30T13:54:51.753Z,1.27
2018-03-30T13:57:29.864Z,1.17
2018-03-30T13:59:56.982Z,1.30
2018-03-30T14:02:30.264Z,1.10
2018-03-30T14:08:31.504Z,1.23
2018-03-30T14:11:00.167Z,1.23
2018-03-30T14:13:26.487Z,0.80
2018-03-30T14:15:58.878Z,1.00
2018-03-30T14:21:17.975Z,1.00
2018-03-30T14:23:44.991Z,1.13
2018-03-30T14:29:12.138Z,0.90
2018-03-30T14:31:45.276Z,0.90
2018-03-30T14:34:17.264Z,0.80
2018-03-30T14:37:00.469Z,1.23
2018-03-30T14:39:40.594Z,0.97
2018-03-30T14:42:24.767Z,1.30
2018-03-30T14:44:56.864Z,1.07
2018-03-30T14:47:24.407Z,1.00
2018-03-30T14:49:54.328Z,1.00
2018-03-30T14:52:45.290Z,0.90
2018-03-30T14:55:22.259Z,1.10
2018-03-30T14:57:55.335Z,1.00
2018-03-30T15:00:27.421Z,1.03
2018-03-30T15:03:10.597Z,1.00
2018-03-30T15:05:45.730Z,1.83
2018-03-30T15:11:35.578Z,1.40
2018-03-30T15:14:16.774Z,0.90
2018-03-30T15:16:50.951Z,1.17
2018-03-30T15:19:28.039Z,1.20
2018-03-30T15:22:12.975Z,1.10
2018-03-30T15:24:52.072Z,0.80
2018-03-30T15:27:22.345Z,0.97
2018-03-30T15:30:01.121Z,1.00
2018-03-30T15:32:28.241Z,1.00
2018-03-30T15:34:54.552Z,1.47
2018-03-30T15:37:21.904Z,1.00
2018-03-30T15:39:53.807Z,1.10
2018-03-30T15:42:20.939Z,0.93
2018-03-30T15:44:47.224Z,1.07
2018-03-30T15:47:15.816Z,1.20
2018-03-30T15:49:42.859Z,1.10
2018-03-30T15:52:12.856Z,1.27
2018-03-30T15:54:39.162Z,1.27
2018-03-30T15:57:05.494Z,1.40
2018-03-30T15:59:31.852Z,1.13
2018-03-30T16:01:58.194Z,1.40
2018-03-30T16:04:24.485Z,1.40
2018-03-30T16:06:50.780Z,1.43
2018-03-30T16:09:19.093Z,1.67
2018-03-30T16:11:45.396Z,1.60
2018-03-30T16:14:12.739Z,1.23
2018-03-30T16:16:39.010Z,1.53
2018-03-30T16:19:05.082Z,1.50
2018-03-30T16:21:31.124Z,1.30
2018-03-30T16:23:57.164Z,1.17
2018-03-30T16:26:23.303Z,1.10
2018-03-30T16:28:49.383Z,1.17
2018-03-30T16:31:15.485Z,1.47
2018-03-30T16:33:41.875Z,1.60
2018-03-30T16:36:07.940Z,1.47
2018-03-30T16:38:34.408Z,1.30
2018-03-30T16:41:00.437Z,1.40
2018-03-30T16:43:26.553Z,1.70
2018-03-30T16:45:52.650Z,1.30
2018-03-30T16:48:19.027Z,1.37
2018-03-30T16:50:45.085Z,1.70
2018-03-30T16:53:11.159Z,1.60
2018-03-30T16:55:37.234Z,1.67
2018-03-30T16:58:04.250Z,1.30
2018-03-30T17:00:30.318Z,1.60
2018-03-30T17:02:56.742Z,1.83
2018-03-30T17:05:23.164Z,1.47
2018-03-30T17:07:49.213Z,1.57
2018-03-30T17:10:15.273Z,1.30
2018-03-30T17:12:41.416Z,1.80
2018-03-30T17:15:07.482Z,1.80
2018-03-30T17:17:33.598Z,1.70
2018-03-30T17:19:59.626Z,1.60
2018-03-30T17:22:26.009Z,1.90
2018-03-30T17:24:52.098Z,1.50
2018-03-30T17:27:18.115Z,1.63
2018-03-30T17:29:44.558Z,1.70
2018-03-30T17:32:10.635Z,2.10
2018-03-30T17:34:36.753Z,1.57
2018-03-30T17:37:03.687Z,1.90
2018-03-30T17:39:29.827Z,1.90
2018-03-30T17:41:55.862Z,2.07
2018-03-30T17:44:21.926Z,2.25
2018-03-30T17:46:48.009Z,1.90
2018-03-30T17:49:14.051Z,3.03
2018-03-30T17:51:40.134Z,2.33
2018-03-30T17:54:06.220Z,2.40
2018-03-30T17:56:32.293Z,2.15
2018-03-30T17:58:58.363Z,2.53
2018-03-30T18:01:24.451Z,2.33
2018-03-30T18:03:50.490Z,2.50
2018-03-30T18:06:16.961Z,3.00
2018-03-30T18:08:43.066Z,3.00
2018-03-30T18:11:09.516Z,3.25
2018-03-30T18:13:35.597Z,3.13
2018-03-30T18:16:02.082Z,2.75
2018-03-30T18:18:28.166Z,3.47
2018-03-30T18:20:54.241Z,3.83
2018-03-30T18:23:20.328Z,2.97
2018-03-30T18:25:46.771Z,3.00
2018-03-30T18:28:12.887Z,2.58
2018-03-30T18:30:38.972Z,2.70
2018-03-30T18:33:05.078Z,2.45
2018-03-30T18:35:31.115Z,2.97
2018-03-30T18:37:57.224Z,2.60
2018-03-30T18:40:23.288Z,3.03
2018-03-30T18:42:49.355Z,2.40
2018-03-30T18:45:16.333Z,2.37
2018-03-30T18:47:42.414Z,3.23
2018-03-30T18:50:08.519Z,3.10
2018-03-30T18:52:34.629Z,3.70
2018-03-30T18:55:00.675Z,2.80
2018-03-30T18:57:27.099Z,9.43
2018-03-30T18:59:53.572Z,6.83
2018-03-30T19:02:19.633Z,12.00
2018-03-30T19:04:45.730Z,8.47
2018-03-30T19:07:11.813Z,6.23
2018-03-30T19:09:38.264Z,4.67
2018-03-30T19:12:04.370Z,5.60
2018-03-30T19:14:30.470Z,5.28
2018-03-30T19:16:56.596Z,4.47
2018-03-30T19:19:22.656Z,4.37
2018-03-30T19:21:48.761Z,5.30
2018-03-30T19:24:15.268Z,3.85
2018-03-30T19:26:41.336Z,3.55
2018-03-30T19:29:08.050Z,2.83
2018-03-30T19:31:34.103Z,4.00
2018-03-30T19:34:00.579Z,4.50
2018-03-30T19:36:26.705Z,3.47
2018-03-30T19:38:52.761Z,3.95
2018-03-30T19:41:18.845Z,3.15
2018-03-30T19:43:44.914Z,4.40
2018-03-30T19:46:11.014Z,3.72
2018-03-30T19:48:37.095Z,4.75
2018-03-30T19:51:03.256Z,4.07
2018-03-30T19:53:29.353Z,4.18
2018-03-30T19:55:55.447Z,3.85
2018-03-30T19:58:23.610Z,4.80
2018-03-30T20:00:49.707Z,6.18
2018-03-30T20:03:16.356Z,5.18
2018-03-30T20:05:42.524Z,5.78
2018-03-30T20:08:09.006Z,6.00
2018-03-30T20:10:35.122Z,6.75
2018-03-30T20:13:01.247Z,6.55
2018-03-30T20:15:27.320Z,6.95
2018-03-30T20:17:53.426Z,7.65
2018-03-30T20:20:19.484Z,6.85
2018-03-30T20:22:45.886Z,6.57
2018-03-30T20:25:29.317Z,7.30
2018-03-30T20:27:55.449Z,7.05
2018-03-30T20:30:21.520Z,7.47
2018-03-30T20:32:47.650Z,7.68
2018-03-30T20:35:13.755Z,7.60
2018-03-30T20:37:39.843Z,7.53
2018-03-30T20:40:05.944Z,7.25
2018-03-30T20:42:32.021Z,6.65
2018-03-30T20:44:58.064Z,7.28
2018-03-30T20:47:24.176Z,6.95
2018-03-30T20:49:50.330Z,8.35
2018-03-30T20:52:16.407Z,7.78
2018-03-30T20:54:42.919Z,6.87
2018-03-30T20:57:08.991Z,6.65
2018-03-30T20:59:35.033Z,5.95
2018-03-30T21:02:01.131Z,6.72
2018-03-30T21:04:27.198Z,7.20
2018-03-30T21:06:53.264Z,7.30
2018-03-30T21:09:19.372Z,7.43
2018-03-30T21:11:45.407Z,6.40
2018-03-30T21:14:11.430Z,6.05
2018-03-30T21:16:37.534Z,5.07
2018-03-30T21:19:03.566Z,4.60
2018-03-30T21:21:30.529Z,4.87
2018-03-30T21:23:57.919Z,5.00
2018-03-30T21:26:23.960Z,3.92
2018-03-30T21:28:50.008Z,3.35
2018-03-30T21:31:16.018Z,2.85
2018-03-30T21:33:42.076Z,3.47
2018-03-30T21:36:08.112Z,4.03
2018-03-30T21:38:34.145Z,4.03
2018-03-30T21:41:00.224Z,4.47
2018-03-30T21:43:26.217Z,4.40
2018-03-30T21:45:52.267Z,4.55
2018-03-30T21:48:18.298Z,5.50
2018-03-30T21:50:44.418Z,5.37
2018-03-30T21:53:10.440Z,6.15
2018-03-30T21:55:36.488Z,108.68
2018-03-30T21:58:02.565Z,153.95
2018-03-30T22:00:28.585Z,47.58
2018-03-30T22:02:54.678Z,38.55
2018-03-30T22:05:21.077Z,58.30
2018-03-30T22:07:47.088Z,51.22
2018-03-30T22:10:13.144Z,185.68
2018-03-30T22:12:39.538Z,74.85
2018-03-30T22:15:05.612Z,47.78
2018-03-30T22:17:32.075Z,53.22
2018-03-30T22:19:58.121Z,30.20
2018-03-30T22:22:24.181Z,115.78
2018-03-30T22:24:50.232Z,70.57
2018-03-30T22:27:16.278Z,21.77
2018-03-30T22:29:42.305Z,33.55
2018-03-30T22:32:08.340Z,44.45
2018-03-30T22:34:34.411Z,116.55
2018-03-30T22:37:00.825Z,2.03
2018-03-30T22:39:26.844Z,91.10
2018-03-30T22:41:52.905Z,89.25
2018-03-30T22:44:18.955Z,39.47
2018-03-30T22:46:44.974Z,80.20
2018-03-30T22:49:11.030Z,38.20
2018-03-30T22:51:37.083Z,28.02
2018-03-30T22:54:03.085Z,35.28
2018-03-30T22:56:29.155Z,39.47
2018-03-30T22:58:55.198Z,28.17
2018-03-30T23:01:21.233Z,25.55
2018-03-30T23:03:47.267Z,35.38
2018-03-30T23:06:13.260Z,32.53
2018-03-30T23:08:39.294Z,33.13
2018-03-30T23:11:05.407Z,31.20
2018-03-30T23:13:31.412Z,70.25
2018-03-30T23:15:57.452Z,31.20
2018-03-30T23:18:23.563Z,24.63
2018-03-30T23:20:49.593Z,23.55
2018-03-30T23:23:15.588Z,23.42
2018-03-30T23:25:41.596Z,14.57
2018-03-30T23:28:07.646Z,18.10
2018-03-30T23:30:33.693Z,16.33
2018-03-30T23:32:59.755Z,15.68
2018-03-30T23:35:25.774Z,23.23
2018-03-30T23:37:51.780Z,40.33
2018-03-30T23:40:17.816Z,42.05
2018-03-30T23:42:43.858Z,34.75
2018-03-30T23:45:09.885Z,91.93
2018-03-30T23:47:35.907Z,8.82
2018-03-30T23:50:02.382Z,50.20
2018-03-30T23:52:28.413Z,51.80
2018-03-30T23:54:54.435Z,120.40
2018-03-30T23:57:20.485Z,118.65
2018-03-30T23:59:46.511Z,113.05
